Time;durP1;ratioP1;P1;durP2;ratioP2;P2;SDS_P1;SDS_P2;PMS_P1;PMS_P2;Temp;Humidity;BMP_temperature;BMP_pressure;BME280_temperature;BME280_humidity;BME280_pressure;Samples;Min_cycle;Max_cycle;Signal;HPM_P1;HPM_P2
2023/04/17 00:02:09;;;;;;;48.78;31.55;;;9.70;99.90;;;-144.05;84.56;56923.19;5057124;28;20048;-77
2023/04/17 00:04:39;;;;;;;49.65;30.95;;;9.70;99.90;;;-144.05;84.47;56904.06;5036885;28;20116;-79
2023/04/17 00:07:06;;;;;;;48.15;31.45;;;9.70;99.90;;;-144.05;84.54;56944.41;5036129;28;20020;-79
2023/04/17 00:09:32;;;;;;;47.47;30.35;;;9.70;99.90;;;-144.05;84.62;56925.28;5054101;28;20112;-80
2023/04/17 00:11:58;;;;;;;43.90;29.00;;;9.60;99.90;;;-144.05;84.54;56925.28;5053861;28;20060;-79
2023/04/17 00:14:24;;;;;;;42.10;29.10;;;9.70;99.90;;;-144.05;84.85;56944.41;5036791;28;20083;-80
2023/04/17 00:16:51;;;;;;;46.67;30.70;;;9.70;99.90;;;-144.05;84.82;56921.06;5054575;28;20400;-78
2023/04/17 00:19:17;;;;;;;46.38;29.60;;;9.70;99.90;;;-144.05;84.69;56935.91;5055074;28;20100;-80
2023/04/17 00:21:43;;;;;;;48.25;29.55;;;9.70;99.90;;;-144.05;84.72;56933.78;5057343;28;20143;-79
2023/04/17 00:24:08;;;;;;;46.53;30.80;;;9.60;99.90;;;-144.05;84.66;56927.41;5040363;28;20122;-78
2023/04/17 00:26:34;;;;;;;53.95;33.38;;;9.60;99.90;;;-144.05;84.77;56931.66;5057876;28;20032;-80
2023/04/17 00:29:01;;;;;;;46.47;31.27;;;9.60;99.90;;;-144.05;84.65;56916.81;5058820;28;20045;-79
2023/04/17 00:31:26;;;;;;;47.25;30.33;;;9.60;99.90;;;-144.05;84.64;56931.66;5038192;28;20128;-79
2023/04/17 00:33:52;;;;;;;51.42;31.95;;;9.60;99.90;;;-144.05;84.72;56933.78;5055156;28;20029;-79
2023/04/17 00:36:18;;;;;;;51.58;34.03;;;9.60;99.90;;;-144.05;84.56;56921.06;5056405;28;20060;-76
2023/04/17 00:38:44;;;;;;;49.95;32.42;;;9.60;99.90;;;-144.05;84.48;56948.66;5056567;28;20029;-80
2023/04/17 00:41:10;;;;;;;49.65;32.30;;;9.60;99.90;;;-144.05;84.81;56921.06;5057125;28;20104;-80
2023/04/17 00:43:37;;;;;;;46.33;31.48;;;9.60;99.90;;;-144.05;84.56;56948.66;5056881;28;20021;-79
2023/04/17 00:46:04;;;;;;;47.67;33.15;;;9.50;99.90;;;-144.05;84.31;56942.28;5055420;28;20033;-79
2023/04/17 00:48:34;;;;;;;49.35;30.88;;;9.50;99.90;;;-144.05;84.21;56931.66;5056911;28;20049;-79
2023/04/17 00:51:01;;;;;;;44.13;30.15;;;9.50;99.90;;;-144.05;83.81;56940.16;5056288;28;20033;-78
2023/04/17 00:53:31;;;;;;;44.08;29.60;;;9.50;99.90;;;-144.05;84.07;56921.06;5054688;28;20067;-78
2023/04/17 00:56:04;;;;;;;43.97;29.00;;;9.50;99.90;;;-144.05;83.82;56925.28;5054567;28;20373;-78
2023/04/17 00:58:32;;;;;;;47.20;30.10;;;9.50;99.90;;;-144.05;84.81;56925.28;5055457;28;20040;-78
2023/04/17 01:00:59;;;;;;;44.70;29.80;;;9.50;99.90;;;-144.05;84.21;56916.81;5056606;28;20125;-78
2023/04/17 01:03:25;;;;;;;49.25;31.08;;;9.40;99.90;;;-144.05;83.76;56942.28;5056145;28;20117;-80
2023/04/17 01:05:51;;;;;;;50.75;31.23;;;9.40;99.90;;;-144.05;83.79;56927.41;5058371;28;20057;-79
2023/04/17 01:08:18;;;;;;;45.15;29.83;;;9.40;99.90;;;-144.05;83.39;56944.41;5067128;28;20139;-80
2023/04/17 01:10:44;;;;;;;50.33;30.35;;;9.40;99.90;;;-144.05;84.04;56940.16;5046883;28;20048;-78
2023/04/17 01:13:10;;;;;;;40.15;28.23;;;9.40;99.90;;;-144.05;84.04;56933.78;5059750;28;20029;-79
2023/04/17 01:15:37;;;;;;;47.55;29.77;;;9.30;99.90;;;-144.05;84.42;56918.94;5056327;28;20031;-78
2023/04/17 01:18:05;;;;;;;47.30;29.77;;;9.30;99.90;;;-144.05;83.54;56940.16;5037344;28;20456;-78
2023/04/17 01:20:32;;;;;;;48.22;29.27;;;9.30;99.90;;;-144.05;83.81;56927.41;5054746;28;20090;-75
2023/04/17 01:23:00;;;;;;;44.15;28.50;;;9.30;99.90;;;-144.05;83.07;56931.66;5054282;28;20104;-79
2023/04/17 01:25:27;;;;;;;43.97;29.10;;;9.30;99.90;;;-144.05;82.91;56933.78;5054676;28;20055;-80
2023/04/17 01:27:54;;;;;;;44.40;28.42;;;9.30;99.90;;;-144.05;82.89;56955.03;5053714;28;20029;-79
2023/04/17 01:30:20;;;;;;;43.38;28.95;;;9.30;99.90;;;-144.05;82.76;56944.41;5054253;28;20029;-79
2023/04/17 01:32:46;;;;;;;49.65;29.00;;;9.30;99.90;;;-144.05;82.93;56938.03;5036780;28;20025;-79
2023/04/17 01:35:12;;;;;;;46.20;29.50;;;9.20;99.90;;;-144.05;82.81;56908.31;5036528;28;20029;-78
2023/04/17 01:37:38;;;;;;;44.13;29.60;;;9.30;99.90;;;-144.05;82.31;56925.28;5054491;28;20024;-80
2023/04/17 01:40:05;;;;;;;46.30;29.23;;;9.20;99.90;;;-144.05;83.00;56942.28;5053083;28;20396;-78
2023/04/17 01:42:33;;;;;;;48.10;29.27;;;9.20;99.90;;;-144.05;81.86;56925.28;5035306;28;20029;-79
2023/04/17 01:44:59;;;;;;;44.80;29.83;;;9.20;99.90;;;-144.05;81.63;56933.78;5035410;28;20059;-78
2023/04/17 01:47:25;;;;;;;41.97;28.50;;;9.20;99.90;;;-144.05;81.62;56961.41;5035559;28;20021;-79
2023/04/17 01:49:51;;;;;;;48.53;29.90;;;9.10;99.90;;;-144.05;81.92;56938.03;5052192;28;20029;-79
2023/04/17 01:52:16;;;;;;;42.17;28.42;;;9.10;99.90;;;-144.05;81.87;56933.78;5052478;28;20033;-79
2023/04/17 01:54:42;;;;;;;46.30;29.65;;;9.20;99.90;;;-144.05;82.12;56910.44;5052127;28;20044;-78
2023/04/17 01:57:08;;;;;;;49.70;29.73;;;9.10;99.90;;;-144.05;82.26;56950.78;5054427;28;20048;-78
2023/04/17 01:59:34;;;;;;;43.17;28.98;;;9.10;99.90;;;-144.05;82.14;56946.53;5037735;28;20442;-80
2023/04/17 02:02:00;;;;;;;45.72;29.70;;;9.00;99.90;;;-144.05;82.26;56955.03;5056016;28;20033;-78
2023/04/17 02:04:26;;;;;;;42.15;27.77;;;9.00;99.90;;;-144.05;82.34;56950.78;5054732;28;20045;-79
2023/04/17 02:06:52;;;;;;;46.40;28.23;;;9.00;99.90;;;-144.05;82.22;56944.41;5057050;28;20028;-80
2023/04/17 02:09:17;;;;;;;45.03;30.05;;;9.00;99.90;;;-144.05;82.44;56906.19;5056394;28;20108;-78
2023/04/17 02:11:44;;;;;;;49.08;29.52;;;9.00;99.90;;;-144.05;82.51;56938.03;5037830;28;20441;-78
2023/04/17 02:14:09;;;;;;;46.65;29.58;;;8.90;99.90;;;-144.05;82.79;56931.66;5053976;28;20550;-78
2023/04/17 02:16:36;;;;;;;51.10;30.33;;;8.90;99.90;;;-144.05;82.48;56935.91;5055460;28;20044;-79
2023/04/17 02:19:02;;;;;;;47.08;28.75;;;8.90;99.90;;;-144.05;82.50;56946.53;5056251;28;20028;-78
2023/04/17 02:21:28;;;;;;;47.40;28.88;;;8.90;99.90;;;-144.05;82.59;56918.94;5057457;28;20043;-79
2023/04/17 02:23:54;;;;;;;45.35;29.38;;;8.90;99.90;;;-144.05;82.52;56933.78;5055866;28;20373;-79
2023/04/17 02:26:20;;;;;;;42.17;27.90;;;8.90;99.90;;;-144.05;82.56;56912.56;5056218;28;20032;-80
2023/04/17 02:28:46;;;;;;;42.75;27.25;;;8.90;99.90;;;-144.05;82.65;56950.78;5055839;28;20096;-79
2023/04/17 02:31:12;;;;;;;44.00;29.65;;;8.90;99.90;;;-144.05;83.09;56938.03;5038014;28;20032;-79
2023/04/17 02:33:38;;;;;;;43.10;27.08;;;8.80;99.90;;;-144.05;82.62;56946.53;5054490;28;20411;-79
2023/04/17 02:36:05;;;;;;;44.90;27.80;;;8.90;99.90;;;-144.05;81.97;56927.41;5056935;28;20037;-79
2023/04/17 02:38:32;;;;;;;42.50;28.40;;;8.80;99.90;;;-144.05;82.17;56914.69;5057183;28;20033;-78
2023/04/17 02:40:58;;;;;;;41.30;27.50;;;8.80;99.90;;;-144.05;81.87;56923.19;5055066;28;20110;-78
2023/04/17 02:43:24;;;;;;;42.28;27.58;;;8.80;99.90;;;-144.05;81.87;56940.16;5056415;28;20031;-79
2023/04/17 02:45:50;;;;;;;39.85;26.08;;;8.80;99.90;;;-144.05;81.83;56891.31;5056159;28;20063;-79
2023/04/17 02:48:17;;;;;;;42.95;26.77;;;8.70;99.90;;;-144.05;81.60;56952.91;5037316;28;20025;-79
2023/04/17 02:50:43;;;;;;;48.15;27.63;;;8.70;99.90;;;-144.05;81.79;56929.53;5054714;28;20086;-80
2023/04/17 02:53:09;;;;;;;47.13;28.17;;;8.70;99.90;;;-144.05;81.74;56940.16;5053528;28;20025;-79
2023/04/17 02:55:35;;;;;;;44.15;29.65;;;8.70;99.90;;;-144.05;81.91;56940.16;5053476;28;20033;-79
2023/04/17 02:58:01;;;;;;;41.15;27.02;;;8.70;99.90;;;-144.05;81.46;56918.94;5052944;28;20058;-80
2023/04/17 03:00:28;;;;;;;42.72;28.27;;;8.70;99.90;;;-144.05;81.24;56921.06;5052999;28;20128;-77
2023/04/17 03:02:54;;;;;;;38.80;26.15;;;8.70;99.90;;;-144.05;81.32;56952.91;5036694;28;20025;-79
2023/04/17 03:05:22;;;;;;;40.17;26.55;;;8.70;99.90;;;-144.05;81.54;56940.16;5054346;28;20031;-80
2023/04/17 03:07:54;;;;;;;42.53;26.88;;;8.60;99.90;;;-144.05;81.54;56912.56;5053945;28;20037;-78
2023/04/17 03:10:20;;;;;;;45.05;27.90;;;8.60;99.90;;;-144.05;81.45;56921.06;5053879;28;20079;-78
2023/04/17 03:12:45;;;;;;;40.13;27.13;;;8.60;99.90;;;-144.05;81.49;56938.03;5035861;28;20025;-79
2023/04/17 03:15:11;;;;;;;46.17;29.25;;;8.50;99.90;;;-144.05;81.89;56942.28;5053073;28;20084;-79
2023/04/17 03:17:37;;;;;;;45.20;29.20;;;8.50;99.90;;;-144.05;81.41;56933.78;5036483;28;20043;-78
2023/04/17 03:20:06;;;;;;;42.58;27.40;;;8.60;99.90;;;-144.05;81.62;56921.06;5054082;28;20027;-78
2023/04/17 03:22:32;;;;;;;47.53;29.88;;;8.50;99.90;;;-144.05;81.54;56933.78;5052881;28;20057;-78
2023/04/17 03:24:58;;;;;;;48.80;29.85;;;8.50;99.90;;;-144.05;81.64;56938.03;5055017;28;20043;-79
2023/04/17 03:27:24;;;;;;;43.33;29.83;;;8.50;99.90;;;-144.05;81.88;56918.94;5054986;28;20108;-79
2023/04/17 03:29:51;;;;;;;49.35;29.90;;;8.50;99.90;;;-144.05;81.61;56961.41;5054908;28;20349;-77
2023/04/17 03:32:17;;;;;;;52.47;30.45;;;8.50;99.90;;;-144.05;81.63;56938.03;5054598;28;20051;-80
2023/04/17 03:34:43;;;;;;;46.55;30.75;;;8.50;99.90;;;-144.05;81.44;56952.91;5053107;28;20444;-78
2023/04/17 03:37:09;;;;;;;45.92;29.70;;;8.50;99.90;;;-144.05;81.76;56952.91;5054189;28;20028;-78
2023/04/17 03:39:35;;;;;;;48.30;31.08;;;8.50;99.90;;;-144.05;81.34;56929.53;5052929;28;20443;-79
2023/04/17 03:42:01;;;;;;;47.85;30.70;;;8.50;99.90;;;-144.05;81.31;56944.41;5053533;28;20029;-80
2023/04/17 03:44:26;;;;;;;52.28;31.90;;;8.50;99.90;;;-144.05;81.43;56976.28;5053087;28;20032;-81
2023/04/17 03:46:52;;;;;;;51.17;31.60;;;8.50;99.90;;;-144.05;81.35;56925.28;5054770;28;20075;-78
2023/04/17 03:49:18;;;;;;;52.83;32.60;;;8.50;99.90;;;-144.05;81.32;56948.66;5053771;28;20085;-78
2023/04/17 03:51:44;;;;;;;46.50;30.27;;;8.50;99.90;;;-144.05;81.53;56935.91;5054193;28;20029;-79
2023/04/17 03:54:10;;;;;;;52.80;30.92;;;8.60;99.90;;;-144.05;81.40;56927.41;5061637;28;20077;-80
2023/04/17 03:56:36;;;;;;;49.33;30.73;;;8.50;99.90;;;-144.05;80.97;56927.41;5058705;28;20035;-80
2023/04/17 03:59:04;;;;;;;48.80;30.92;;;8.50;99.90;;;-144.05;81.18;56959.28;5055253;28;20032;-79
2023/04/17 04:01:31;;;;;;;59.40;32.90;;;8.50;99.90;;;-144.05;81.34;56933.78;5054595;28;20400;-81
2023/04/17 04:03:58;;;;;;;53.95;31.30;;;8.50;99.90;;;-144.05;81.34;56948.66;5054132;28;20493;-80
2023/04/17 04:06:28;;;;;;;50.70;32.55;;;8.50;99.90;;;-144.05;81.45;56963.53;5054092;28;20103;-77
2023/04/17 04:08:55;;;;;;;44.83;30.15;;;8.50;99.90;;;-144.05;81.23;56950.78;5053698;28;20025;-80
2023/04/17 04:11:22;;;;;;;53.15;31.83;;;8.50;99.90;;;-144.05;81.20;56944.41;5036546;28;20113;-81
2023/04/17 04:13:47;;;;;;;52.55;31.42;;;8.60;99.90;;;-144.05;80.93;56946.53;5053205;28;20036;-82
2023/04/17 04:16:13;;;;;;;55.22;31.05;;;8.50;99.90;;;-144.05;80.58;56940.16;5055573;28;20025;-80
2023/04/17 04:18:39;;;;;;;49.67;31.38;;;8.50;99.90;;;-144.05;80.55;56950.78;5054140;28;20025;-81
2023/04/17 04:21:05;;;;;;;49.67;30.77;;;8.50;99.90;;;-144.05;80.94;56940.16;5056317;28;20032;-79
2023/04/17 04:23:32;;;;;;;50.75;30.95;;;8.50;99.90;;;-144.05;80.99;56955.03;5037514;28;20033;-81
2023/04/17 04:26:00;;;;;;;51.92;31.67;;;8.50;99.90;;;-144.05;81.04;56944.41;5054658;28;20368;-80
2023/04/17 04:28:27;;;;;;;58.38;35.33;;;8.50;99.90;;;-144.05;80.62;56933.78;5037466;28;20025;-81
2023/04/17 04:30:54;;;;;;;85.78;47.78;;;8.50;99.90;;;-144.05;80.67;56935.91;5056146;28;20031;-81
2023/04/17 04:33:20;;;;;;;54.30;34.10;;;8.50;99.90;;;-144.05;80.40;56938.03;5053403;28;20064;-80
2023/04/17 04:35:50;;;;;;;60.47;34.45;;;8.50;99.90;;;-144.05;80.16;56944.41;5054385;28;20113;-80
2023/04/17 04:38:16;;;;;;;52.03;33.25;;;8.50;99.90;;;-144.05;80.04;56933.78;5053491;28;20082;-79
2023/04/17 04:40:50;;;;;;;52.33;32.15;;;8.50;99.90;;;-144.05;80.01;56938.03;5054483;28;20040;-80
2023/04/17 04:43:17;;;;;;;62.25;38.88;;;8.50;99.90;;;-144.05;79.94;56923.19;5036751;28;20063;-81
2023/04/17 04:45:42;;;;;;;53.25;33.45;;;8.60;99.90;;;-144.05;79.72;56938.03;5055549;28;20487;-83
2023/04/17 04:48:08;;;;;;;64.55;38.85;;;8.50;99.90;;;-144.05;79.57;56921.06;5057496;28;20130;-83
2023/04/17 04:50:34;;;;;;;63.65;39.85;;;8.50;99.90;;;-144.05;79.61;56925.28;5038208;28;20033;-80
2023/04/17 04:53:00;;;;;;;45.35;29.40;;;8.50;99.90;;;-144.05;79.51;56929.53;5054207;28;20052;-80
2023/04/17 04:55:26;;;;;;;51.65;30.08;;;8.50;99.90;;;-144.05;79.62;56948.66;5036208;28;20032;-81
2023/04/17 04:57:53;;;;;;;63.45;38.22;;;8.60;99.90;;;-144.05;79.62;56940.16;5060192;28;20059;-79
2023/04/17 05:00:19;;;;;;;57.80;32.63;;;8.60;99.90;;;-144.05;79.36;56916.81;5064132;28;20399;-77
2023/04/17 05:02:45;;;;;;;45.78;28.75;;;8.60;99.90;;;-144.05;79.07;56933.78;5068393;28;20021;-81
2023/04/17 05:05:11;;;;;;;43.40;29.27;;;8.60;99.90;;;-144.05;79.01;56955.03;5069015;22;20416;-78
2023/04/17 05:07:37;;;;;;;47.67;28.08;;;8.60;99.90;;;-144.05;79.15;56931.66;5035812;28;20469;-80
2023/04/17 05:10:05;;;;;;;46.03;28.98;;;8.60;99.90;;;-144.05;79.08;56950.78;5034884;28;20029;-78
2023/04/17 05:12:31;;;;;;;50.40;30.05;;;8.60;99.90;;;-144.05;78.98;56942.28;5035325;28;20029;-78
2023/04/17 05:14:57;;;;;;;48.47;29.58;;;8.70;99.90;;;-144.05;79.32;56950.78;5034502;28;20053;-77
2023/04/17 05:17:23;;;;;;;47.03;29.88;;;8.60;99.90;;;-144.05;78.88;56938.03;5034997;28;20040;-79
2023/04/17 05:19:49;;;;;;;49.88;29.42;;;8.60;99.90;;;-144.05;79.23;56955.03;5050772;28;20116;-79
2023/04/17 05:22:15;;;;;;;48.15;30.80;;;8.60;99.90;;;-144.05;79.48;56931.66;5035715;28;20029;-78
2023/04/17 05:24:41;;;;;;;49.05;29.65;;;8.60;99.90;;;-144.05;78.99;56940.16;5034961;28;20028;-77
2023/04/17 05:27:07;;;;;;;49.00;28.70;;;8.60;99.90;;;-144.05;78.75;56938.03;5034970;28;20090;-79
2023/04/17 05:29:33;;;;;;;45.20;28.95;;;8.60;99.90;;;-144.05;78.45;56916.81;5051100;28;20105;-76
2023/04/17 05:31:59;;;;;;;44.47;29.42;;;8.70;99.90;;;-144.05;78.62;56961.41;5054353;28;20537;-77
2023/04/17 05:34:25;;;;;;;46.83;28.20;;;8.60;99.90;;;-144.05;78.44;56925.28;5039417;28;20397;-78
2023/04/17 05:36:51;;;;;;;46.90;28.48;;;8.60;99.90;;;-144.05;78.65;56925.28;5039266;28;20041;-77
2023/04/17 05:39:17;;;;;;;44.40;29.67;;;8.60;99.90;;;-144.05;78.45;56957.16;5039139;28;20030;-79
2023/04/17 05:41:42;;;;;;;42.33;27.90;;;8.70;99.90;;;-144.05;78.22;56921.06;5038740;28;20084;-79
2023/04/17 05:44:08;;;;;;;43.03;28.10;;;8.70;99.90;;;-144.05;78.50;56931.66;5039548;28;20481;-78
2023/04/17 05:46:34;;;;;;;43.42;28.35;;;8.70;99.90;;;-144.05;78.28;56942.28;5038728;28;20025;-79
2023/04/17 05:49:00;;;;;;;44.47;27.98;;;8.70;99.90;;;-144.05;78.48;56925.28;5038872;28;20080;-78
2023/04/17 05:51:26;;;;;;;40.05;27.10;;;8.70;99.90;;;-144.05;78.28;56935.91;5039260;28;20346;-78
2023/04/17 05:53:52;;;;;;;43.53;28.80;;;8.80;99.90;;;-144.05;77.83;56931.66;5039614;28;20112;-78
2023/04/17 05:56:18;;;;;;;43.92;27.45;;;8.80;99.90;;;-144.05;77.63;56946.53;5038418;28;20061;-78
2023/04/17 05:58:44;;;;;;;40.92;26.42;;;8.80;99.90;;;-144.05;77.02;56901.94;5039125;28;20075;-78
2023/04/17 06:01:11;;;;;;;45.03;27.65;;;8.80;99.90;;;-144.05;77.35;56929.53;5053285;28;20032;-78
2023/04/17 06:03:37;;;;;;;44.50;27.40;;;8.80;99.90;;;-144.05;76.53;56935.91;5038063;28;20090;-77
2023/04/17 06:06:03;;;;;;;42.03;25.27;;;8.80;99.90;;;-144.05;76.96;56933.78;5036582;28;20029;-78
2023/04/17 06:08:29;;;;;;;38.35;26.40;;;8.80;99.90;;;-144.05;76.62;56942.28;5037787;28;20047;-78
2023/04/17 06:10:55;;;;;;;43.45;26.92;;;8.80;99.90;;;-144.05;76.46;56927.41;5038328;28;20444;-77
2023/04/17 06:13:23;;;;;;;40.58;27.13;;;8.90;99.90;;;-144.05;76.22;56923.19;5053319;28;20057;-79
2023/04/17 06:15:50;;;;;;;39.90;26.10;;;8.90;99.90;;;-144.05;76.42;56931.66;5038329;28;20061;-79
2023/04/17 06:18:16;;;;;;;41.53;27.98;;;8.90;99.90;;;-144.05;76.62;56938.03;5037649;28;20560;-76
2023/04/17 06:20:44;;;;;;;38.65;25.23;;;8.90;99.90;;;-144.05;76.14;56940.16;5053829;28;20045;-78
2023/04/17 06:23:11;;;;;;;37.03;25.75;;;9.00;99.90;;;-144.05;76.49;56938.03;5038418;28;20438;-78
2023/04/17 06:25:37;;;;;;;40.95;25.38;;;9.00;99.90;;;-144.05;76.12;56914.69;5037592;28;20172;-78
2023/04/17 06:28:03;;;;;;;46.85;27.23;;;9.00;99.90;;;-144.05;76.47;56940.16;5038054;28;20147;-78
2023/04/17 06:30:29;;;;;;;39.63;25.88;;;9.00;99.90;;;-144.05;76.08;56959.28;5038806;28;20436;-77
2023/04/17 06:32:55;;;;;;;41.25;27.63;;;9.00;99.90;;;-144.05;76.35;56957.16;5038981;28;20029;-78
2023/04/17 06:35:21;;;;;;;115.28;52.20;;;9.00;99.90;;;-144.05;75.90;56961.41;5053591;28;20108;-78
2023/04/17 06:37:46;;;;;;;49.05;29.88;;;9.00;99.90;;;-144.05;75.72;56938.03;5038467;28;20025;-78
2023/04/17 06:40:12;;;;;;;42.50;28.63;;;9.00;99.90;;;-144.05;75.31;56933.78;5038082;28;20116;-77
2023/04/17 06:42:38;;;;;;;45.65;26.88;;;9.10;99.90;;;-144.05;75.25;56931.66;5037136;28;20030;-78
2023/04/17 06:45:05;;;;;;;43.78;27.95;;;9.20;99.90;;;-144.05;74.23;56916.81;5037418;28;20028;-78
2023/04/17 06:47:31;;;;;;;38.80;26.60;;;9.30;99.90;;;-144.05;74.79;56923.19;5036843;28;20028;-79
2023/04/17 06:49:58;;;;;;;43.20;27.58;;;9.40;99.90;;;-144.05;74.33;56931.66;5037304;28;20030;-78
2023/04/17 06:52:25;;;;;;;38.45;25.17;;;9.40;99.90;;;-144.05;74.29;56950.78;5037587;28;20110;-78
2023/04/17 06:54:54;;;;;;;40.70;26.48;;;9.40;99.90;;;-144.05;74.46;56927.41;5036475;28;20029;-79
2023/04/17 06:57:21;;;;;;;39.30;26.15;;;9.30;99.90;;;-144.05;74.24;56946.53;5037944;28;20036;-78
2023/04/17 06:59:47;;;;;;;39.10;27.58;;;9.30;99.90;;;-144.05;74.83;56929.53;5037405;28;20493;-78
2023/04/17 07:02:13;;;;;;;47.25;26.85;;;9.40;99.90;;;-144.05;74.76;56942.28;5052160;28;20083;-77
2023/04/17 07:04:39;;;;;;;44.47;27.95;;;9.40;99.90;;;-144.05;74.05;56933.78;5036591;28;20353;-78
2023/04/17 07:07:05;;;;;;;39.67;26.50;;;9.30;99.90;;;-144.05;74.90;56940.16;5036917;28;20044;-78
2023/04/17 07:09:31;;;;;;;42.15;29.48;;;9.30;99.90;;;-144.05;74.96;56933.78;5036013;28;20385;-79
2023/04/17 07:11:57;;;;;;;39.42;27.00;;;9.40;99.90;;;-144.05;74.17;56946.53;5052075;28;20088;-78
2023/04/17 07:14:23;;;;;;;48.42;29.25;;;9.50;99.90;;;-144.05;73.94;56927.41;5036827;28;20408;-79
2023/04/17 07:16:49;;;;;;;40.53;25.15;;;9.60;99.90;;;-144.05;73.09;56931.66;5036155;28;20077;-78
2023/04/17 07:19:15;;;;;;;39.10;25.75;;;9.60;99.90;;;-144.05;72.68;56946.53;5036429;28;20037;-78
2023/04/17 07:21:41;;;;;;;38.78;25.85;;;9.70;99.90;;;-144.05;73.19;56925.28;5036314;28;20037;-79
2023/04/17 07:24:06;;;;;;;40.13;26.60;;;9.90;99.90;;;-144.05;73.53;56927.41;5034570;28;20117;-78
2023/04/17 07:26:32;;;;;;;40.30;26.23;;;9.90;99.90;;;-144.05;72.58;56935.91;5035506;28;20033;-77
2023/04/17 07:28:58;;;;;;;41.17;25.70;;;10.00;99.90;;;-144.05;72.19;56942.28;5035401;28;20021;-79
2023/04/17 07:31:24;;;;;;;40.47;26.70;;;10.00;99.90;;;-144.05;71.80;56944.41;5036422;28;20338;-79
2023/04/17 07:33:50;;;;;;;37.63;25.90;;;10.00;99.90;;;-144.05;72.26;56923.19;5036119;28;20025;-78
2023/04/17 07:36:16;;;;;;;35.97;25.10;;;10.00;99.90;;;-144.05;72.00;56935.91;5034753;28;20069;-78
2023/04/17 07:38:41;;;;;;;36.90;24.35;;;10.20;99.90;;;-144.05;71.51;56923.19;5036906;28;20033;-78
2023/04/17 07:41:07;;;;;;;41.60;24.95;;;10.20;99.90;;;-144.05;70.84;56935.91;5036577;28;20052;-78
2023/04/17 07:43:33;;;;;;;37.85;25.67;;;10.30;99.90;;;-144.05;70.62;56940.16;5051674;28;20025;-77
2023/04/17 07:45:59;;;;;;;40.75;26.20;;;10.30;99.90;;;-144.05;69.99;56944.41;5033871;28;20025;-77
2023/04/17 07:48:26;;;;;;;38.42;25.23;;;10.40;99.90;;;-144.05;69.41;56935.91;5050189;28;20052;-77
2023/04/17 07:50:52;;;;;;;40.13;25.25;;;10.50;99.90;;;-144.05;69.77;56946.53;5035466;28;20063;-77
2023/04/17 07:53:18;;;;;;;45.25;25.95;;;10.60;99.90;;;-144.05;69.28;56925.28;5033860;28;20057;-79
2023/04/17 07:55:45;;;;;;;38.65;24.95;;;10.60;99.90;;;-144.05;68.66;56931.66;5034899;28;20107;-78
2023/04/17 07:58:11;;;;;;;36.85;24.05;;;10.80;99.90;;;-144.05;68.30;56946.53;5034740;28;20060;-79
2023/04/17 08:00:38;;;;;;;39.00;26.08;;;10.90;99.90;;;-144.05;67.58;56891.31;5035099;28;20466;-77
2023/04/17 08:03:04;;;;;;;37.53;24.63;;;11.20;99.90;;;-144.05;67.09;56921.06;5050274;28;20025;-78
2023/04/17 08:05:31;;;;;;;37.85;24.00;;;11.30;99.90;;;-144.05;66.34;56916.81;5035482;28;20030;-78
2023/04/17 08:07:59;;;;;;;36.22;24.58;;;11.40;99.90;;;-144.05;65.47;56929.53;5034165;28;20017;-78
2023/04/17 08:10:27;;;;;;;37.53;23.35;;;11.40;99.90;;;-144.05;65.91;56944.41;5034899;28;20022;-78
2023/04/17 08:12:54;;;;;;;31.73;22.42;;;11.50;99.90;;;-144.05;64.97;56895.56;5050300;28;20028;-78
2023/04/17 08:15:20;;;;;;;33.90;22.58;;;11.70;99.90;;;-144.05;63.65;56938.03;5035259;28;20033;-77
2023/04/17 08:17:46;;;;;;;34.65;22.23;;;11.70;99.90;;;-144.05;63.89;56914.69;5049745;28;20026;-78
2023/04/17 08:20:12;;;;;;;37.00;21.83;;;11.70;99.90;;;-144.05;63.42;56944.41;5034304;28;20397;-78
2023/04/17 08:22:45;;;;;;;32.00;22.95;;;11.70;99.90;;;-144.05;64.14;56912.56;5033579;28;20033;-78
2023/04/17 08:25:13;;;;;;;28.10;21.60;;;11.70;99.90;;;-144.05;63.80;56929.53;5034031;28;20057;-79
2023/04/17 08:27:42;;;;;;;31.08;20.30;;;11.70;99.90;;;-144.05;62.97;56925.28;5034493;28;20376;-77
2023/04/17 08:30:11;;;;;;;31.20;21.23;;;11.90;99.90;;;-144.05;62.43;56912.56;5033401;28;20026;-77
2023/04/17 08:32:45;;;;;;;29.80;20.27;;;12.10;99.90;;;-144.05;62.13;56938.03;5034342;28;20037;-77
2023/04/17 08:35:14;;;;;;;26.55;19.33;;;12.10;99.90;;;-144.05;61.48;56908.31;5049863;28;20116;-78
2023/04/17 08:37:45;;;;;;;30.33;20.00;;;12.20;99.90;;;-144.05;60.57;56927.41;5034162;28;20172;-77
2023/04/17 08:40:13;;;;;;;27.58;19.05;;;12.20;99.90;;;-144.05;60.58;56910.44;5033858;28;20025;-79
2023/04/17 08:42:41;;;;;;;24.63;17.65;;;12.30;99.90;;;-144.05;59.08;56916.81;5034777;28;20041;-79
2023/04/17 08:45:12;;;;;;;25.23;17.40;;;12.40;99.90;;;-144.05;58.38;56921.06;5050683;28;20125;-78
2023/04/17 08:47:42;;;;;;;27.88;17.52;;;12.50;99.90;;;-144.05;58.38;56938.03;5034682;28;20102;-78
2023/04/17 08:50:20;;;;;;;23.85;16.60;;;12.50;99.90;;;-144.05;57.31;56944.41;5050196;28;20084;-78
2023/04/17 08:52:51;;;;;;;23.23;16.63;;;12.70;99.90;;;-144.05;55.89;56916.81;5034412;28;20101;-79
2023/04/17 08:55:24;;;;;;;24.80;16.20;;;12.80;99.90;;;-144.05;56.46;56912.56;5033845;28;20036;-79
2023/04/17 08:58:04;;;;;;;24.23;15.85;;;13.10;99.90;;;-144.05;55.05;56906.19;5033012;28;20117;-78
2023/04/17 09:00:35;;;;;;;21.20;15.38;;;13.20;99.90;;;-144.05;54.59;56927.41;5033814;28;20030;-78
2023/04/17 09:03:06;;;;;;;23.00;15.25;;;13.30;99.90;;;-144.05;52.87;56929.53;5033620;28;20040;-79
2023/04/17 09:05:37;;;;;;;19.35;13.27;;;13.40;99.90;;;-144.05;52.05;56927.41;5032348;28;20076;-77
2023/04/17 09:08:19;;;;;;;20.95;15.13;;;13.20;99.90;;;-144.05;52.37;56942.28;5031552;28;20032;-77
2023/04/17 09:10:51;;;;;;;24.00;15.52;;;13.00;99.90;;;-144.05;52.97;56923.19;5049126;28;20029;-77
2023/04/17 09:13:24;;;;;;;22.67;14.45;;;13.10;99.90;;;-144.05;51.57;56938.03;5040333;28;20041;-78
2023/04/17 09:16:14;;;;;;;24.15;14.15;;;13.10;99.90;;;-144.05;51.35;56921.06;5040598;28;20037;-79
2023/04/17 09:18:48;;;;;;;22.60;14.60;;;13.00;99.90;;;-144.05;51.99;56916.81;5041243;28;20037;-78
2023/04/17 09:21:17;;;;;;;18.85;13.68;;;13.00;99.90;;;-144.05;51.13;56933.78;5041156;28;20056;-78
2023/04/17 09:23:49;;;;;;;22.55;14.40;;;13.00;99.90;;;-144.05;50.94;56942.28;5037406;28;20018;-78
2023/04/17 09:26:30;;;;;;;20.33;13.93;;;13.30;99.90;;;-144.05;49.81;56921.06;5032757;28;20032;-78
2023/04/17 09:29:10;;;;;;;21.23;13.57;;;13.60;99.90;;;-144.05;49.33;56912.56;5033918;28;20534;-77
2023/04/17 09:31:39;;;;;;;19.52;12.93;;;13.90;99.90;;;-144.05;47.90;56916.81;5033653;28;20025;-78
2023/04/17 09:34:12;;;;;;;18.23;12.70;;;14.10;99.90;;;-144.05;47.33;56955.03;5033634;28;20509;-77
2023/04/17 09:36:41;;;;;;;20.90;12.70;;;14.20;99.90;;;-144.05;48.42;56912.56;5035147;28;20029;-77
2023/04/17 09:39:22;;;;;;;17.38;11.45;;;13.80;99.90;;;-144.05;47.93;56931.66;5033229;28;20401;-78
2023/04/17 09:41:50;;;;;;;16.20;10.60;;;14.10;99.90;;;-144.05;47.22;56904.06;5031777;28;20042;-77
2023/04/17 09:44:28;;;;;;;15.75;10.88;;;14.30;99.90;;;-144.05;47.73;56931.66;5033402;28;20101;-77
2023/04/17 09:46:56;;;;;;;16.52;10.88;;;14.30;99.90;;;-144.05;47.05;56933.78;5032791;28;20375;-78
2023/04/17 09:49:51;;;;;;;17.98;11.10;;;14.30;99.90;;;-144.05;48.68;56918.94;5033034;28;20450;-78
2023/04/17 09:52:22;;;;;;;17.80;11.70;;;14.10;99.90;;;-144.05;47.78;56904.06;5032718;28;20107;-76
2023/04/17 09:54:52;;;;;;;17.52;11.02;;;14.50;99.90;;;-144.05;48.86;56908.31;5047435;28;20030;-77
2023/04/17 09:57:18;;;;;;;13.35;9.70;;;14.30;99.90;;;-144.05;48.54;56908.31;5032258;28;20456;-77
2023/04/17 09:59:48;;;;;;;18.23;11.23;;;14.20;99.90;;;-144.05;48.51;56933.78;5032214;28;20037;-79